sensor_id;sensor_type;location;lat;lon;timestamp;temperature;humidity
421;DHT22;63667;49.046;8.468;2023-07-22T11:11:37;29.30;99.60
421;DHT22;63667;49.046;8.468;2023-07-22T11:14:20;29.40;99.60
421;DHT22;63667;49.046;8.468;2023-07-22T11:19:16;28.70;99.60
421;DHT22;63667;49.046;8.468;2023-07-22T11:21:44;28.20;99.60
421;DHT22;63667;49.046;8.468;2023-07-22T11:24:11;27.90;99.60
421;DHT22;63667;49.046;8.468;2023-07-22T11:26:39;27.70;99.60
421;DHT22;63667;49.046;8.468;2023-07-22T11:29:07;27.50;99.60
421;DHT22;63667;49.046;8.468;2023-07-22T11:31:40;27.50;99.60
421;DHT22;63667;49.046;8.468;2023-07-22T11:34:24;27.50;99.60
421;DHT22;63667;49.046;8.468;2023-07-22T11:36:52;27.80;99.60
421;DHT22;63667;49.046;8.468;2023-07-22T11:39:21;28.60;99.60
421;DHT22;63667;49.046;8.468;2023-07-22T11:54:21;29.00;99.60
421;DHT22;63667;49.046;8.468;2023-07-22T11:56:48;28.40;99.60
421;DHT22;63667;49.046;8.468;2023-07-22T11:59:15;27.80;99.60
421;DHT22;63667;49.046;8.468;2023-07-22T12:01:45;27.70;99.60
421;DHT22;63667;49.046;8.468;2023-07-22T12:04:14;27.10;99.60
421;DHT22;63667;49.046;8.468;2023-07-22T12:06:41;26.90;99.60
421;DHT22;63667;49.046;8.468;2023-07-22T12:09:09;26.90;99.60
421;DHT22;63667;49.046;8.468;2023-07-22T12:11:37;27.80;99.60
421;DHT22;63667;49.046;8.468;2023-07-22T12:14:08;28.30;99.60
421;DHT22;63667;49.046;8.468;2023-07-22T12:16:40;29.30;99.60
421;DHT22;63667;49.046;8.468;2023-07-22T12:19:27;30.80;99.60
421;DHT22;63667;49.046;8.468;2023-07-22T12:24:22;29.00;99.60
421;DHT22;63667;49.046;8.468;2023-07-22T12:39:05;32.00;97.40
421;DHT22;63667;49.046;8.468;2023-07-22T12:58:44;29.70;98.50
421;DHT22;63667;49.046;8.468;2023-07-22T13:28:11;30.40;97.20
421;DHT22;63667;49.046;8.468;2023-07-22T13:30:38;31.10;96.30
421;DHT22;63667;49.046;8.468;2023-07-22T13:45:23;30.20;96.40
421;DHT22;63667;49.046;8.468;2023-07-22T13:50:17;30.50;96.30
421;DHT22;63667;49.046;8.468;2023-07-22T14:07:30;28.50;98.70
421;DHT22;63667;49.046;8.468;2023-07-22T14:12:25;28.90;98.50
421;DHT22;63667;49.046;8.468;2023-07-22T14:17:20;30.70;95.40
421;DHT22;63667;49.046;8.468;2023-07-22T14:27:09;29.30;97.00
421;DHT22;63667;49.046;8.468;2023-07-22T14:34:31;28.40;99.30
421;DHT22;63667;49.046;8.468;2023-07-22T14:36:58;28.60;98.90
421;DHT22;63667;49.046;8.468;2023-07-22T14:39:26;29.70;97.30
421;DHT22;63667;49.046;8.468;2023-07-22T17:56:08;26.50;99.60
421;DHT22;63667;49.046;8.468;2023-07-22T17:58:35;26.40;99.60
421;DHT22;63667;49.046;8.468;2023-07-22T18:01:03;26.40;99.60
421;DHT22;63667;49.046;8.468;2023-07-22T18:50:15;24.90;99.60
421;DHT22;63667;49.046;8.468;2023-07-22T18:52:41;24.70;99.60
421;DHT22;63667;49.046;8.468;2023-07-22T18:55:07;24.60;99.60
421;DHT22;63667;49.046;8.468;2023-07-22T18:57:34;24.40;99.60
421;DHT22;63667;49.046;8.468;2023-07-22T19:00:00;24.30;99.60
421;DHT22;63667;49.046;8.468;2023-07-22T19:02:26;24.20;99.60
421;DHT22;63667;49.046;8.468;2023-07-22T19:04:52;24.10;99.60
421;DHT22;63667;49.046;8.468;2023-07-22T19:07:19;23.90;99.60
421;DHT22;63667;49.046;8.468;2023-07-22T19:09:45;23.50;99.60
421;DHT22;63667;49.046;8.468;2023-07-22T19:12:11;23.20;99.60
421;DHT22;63667;49.046;8.468;2023-07-22T19:14:37;22.90;99.60
421;DHT22;63667;49.046;8.468;2023-07-22T19:17:04;22.80;99.60
421;DHT22;63667;49.046;8.468;2023-07-22T19:19:30;22.60;99.60
421;DHT22;63667;49.046;8.468;2023-07-22T19:21:56;22.40;99.60
421;DHT22;63667;49.046;8.468;2023-07-22T19:24:22;22.30;99.60
421;DHT22;63667;49.046;8.468;2023-07-22T19:26:48;22.30;99.60
421;DHT22;63667;49.046;8.468;2023-07-22T19:29:14;22.20;99.60
421;DHT22;63667;49.046;8.468;2023-07-22T19:31:40;22.30;99.60
421;DHT22;63667;49.046;8.468;2023-07-22T19:34:07;22.10;99.60
421;DHT22;63667;49.046;8.468;2023-07-22T19:36:34;22.10;99.60
421;DHT22;63667;49.046;8.468;2023-07-22T19:39:00;22.10;99.60
421;DHT22;63667;49.046;8.468;2023-07-22T19:41:26;22.10;99.60
421;DHT22;63667;49.046;8.468;2023-07-22T19:43:52;22.10;99.60
421;DHT22;63667;49.046;8.468;2023-07-22T19:46:18;21.80;99.60
421;DHT22;63667;49.046;8.468;2023-07-22T19:48:44;21.70;99.60
421;DHT22;63667;49.046;8.468;2023-07-22T19:51:12;21.70;99.60
421;DHT22;63667;49.046;8.468;2023-07-22T19:53:42;21.60;99.60
421;DHT22;63667;49.046;8.468;2023-07-22T19:56:11;21.40;99.60
421;DHT22;63667;49.046;8.468;2023-07-22T19:58:37;21.40;99.60
421;DHT22;63667;49.046;8.468;2023-07-22T20:01:03;21.30;99.60
421;DHT22;63667;49.046;8.468;2023-07-22T20:03:31;21.30;99.60
421;DHT22;63667;49.046;8.468;2023-07-22T20:05:58;21.20;99.60
421;DHT22;63667;49.046;8.468;2023-07-22T20:08:24;21.40;99.60
421;DHT22;63667;49.046;8.468;2023-07-22T20:10:51;21.40;99.60
421;DHT22;63667;49.046;8.468;2023-07-22T20:13:17;21.40;99.60
421;DHT22;63667;49.046;8.468;2023-07-22T20:15:43;21.50;99.60
421;DHT22;63667;49.046;8.468;2023-07-22T20:18:09;21.60;99.60
421;DHT22;63667;49.046;8.468;2023-07-22T20:20:36;21.50;99.60
421;DHT22;63667;49.046;8.468;2023-07-22T20:23:02;21.20;99.60
421;DHT22;63667;49.046;8.468;2023-07-22T20:25:28;21.00;99.60
421;DHT22;63667;49.046;8.468;2023-07-22T20:27:55;20.80;99.60
421;DHT22;63667;49.046;8.468;2023-07-22T20:30:24;20.70;99.60
421;DHT22;63667;49.046;8.468;2023-07-22T20:32:50;20.70;99.60
421;DHT22;63667;49.046;8.468;2023-07-22T20:35:16;20.60;99.60
421;DHT22;63667;49.046;8.468;2023-07-22T20:37:43;20.50;99.60
421;DHT22;63667;49.046;8.468;2023-07-22T20:40:11;20.40;99.60
421;DHT22;63667;49.046;8.468;2023-07-22T20:42:43;20.20;99.60
421;DHT22;63667;49.046;8.468;2023-07-22T20:45:10;20.10;99.60
421;DHT22;63667;49.046;8.468;2023-07-22T20:47:37;20.00;99.60
421;DHT22;63667;49.046;8.468;2023-07-22T20:50:03;20.00;99.60
421;DHT22;63667;49.046;8.468;2023-07-22T20:52:29;20.10;99.60
421;DHT22;63667;49.046;8.468;2023-07-22T20:54:56;20.30;99.60
421;DHT22;63667;49.046;8.468;2023-07-22T20:57:22;20.30;99.60
421;DHT22;63667;49.046;8.468;2023-07-22T20:59:49;20.40;99.60
421;DHT22;63667;49.046;8.468;2023-07-22T21:02:16;20.30;99.60
421;DHT22;63667;49.046;8.468;2023-07-22T21:04:43;20.30;99.60
421;DHT22;63667;49.046;8.468;2023-07-22T21:07:09;20.30;99.60
421;DHT22;63667;49.046;8.468;2023-07-22T21:09:36;20.30;99.60
421;DHT22;63667;49.046;8.468;2023-07-22T21:12:03;20.30;99.60
421;DHT22;63667;49.046;8.468;2023-07-22T21:14:29;20.20;99.60
421;DHT22;63667;49.046;8.468;2023-07-22T21:16:55;19.90;99.60
421;DHT22;63667;49.046;8.468;2023-07-22T21:19:21;19.70;99.60
